createdAt,value
2017-03-30T00:00:06.612Z,1021.51
2017-03-30T00:01:06.642Z,1021.44
2017-03-30T00:02:06.671Z,1021.48
2017-03-30T00:03:06.702Z,1021.47
2017-03-30T00:04:06.738Z,1021.52
2017-03-30T00:05:06.765Z,1021.47
2017-03-30T00:06:06.796Z,1021.47
2017-03-30T00:07:06.828Z,1021.45
2017-03-30T00:08:06.861Z,1021.49
2017-03-30T00:09:06.891Z,1021.48
2017-03-30T00:10:06.925Z,1021.49
2017-03-30T00:11:06.956Z,1021.45
2017-03-30T00:12:06.985Z,1021.53
2017-03-30T00:13:07.017Z,1021.49
2017-03-30T00:14:07.052Z,1021.45
2017-03-30T00:15:07.084Z,1021.5
2017-03-30T00:16:07.112Z,1021.49
2017-03-30T00:17:07.143Z,1021.5
2017-03-30T00:18:07.169Z,1021.47
2017-03-30T00:19:07.207Z,1021.46
2017-03-30T00:20:07.238Z,1021.49
2017-03-30T00:21:07.269Z,1021.48
2017-03-30T00:22:07.301Z,1021.51
2017-03-30T00:23:07.332Z,1021.52
2017-03-30T00:24:07.359Z,1021.49
2017-03-30T00:25:07.395Z,1021.49
2017-03-30T00:26:07.425Z,1021.51
2017-03-30T00:27:07.447Z,1021.52
2017-03-30T00:28:07.488Z,1021.51
2017-03-30T00:29:07.524Z,1021.52
2017-03-30T00:30:07.554Z,1021.48
2017-03-30T00:31:07.582Z,1021.55
2017-03-30T00:32:07.609Z,1021.54
2017-03-30T00:33:07.648Z,1021.54
2017-03-30T00:34:07.678Z,1021.52
2017-03-30T00:35:07.714Z,1021.54
2017-03-30T00:36:07.740Z,1021.52
2017-03-30T00:37:07.771Z,1021.51
2017-03-30T00:38:07.802Z,1021.52
2017-03-30T00:39:07.833Z,1021.56
2017-03-30T00:40:07.965Z,1021.52
2017-03-30T00:41:07.894Z,1021.48
2017-03-30T00:42:07.927Z,1021.48
2017-03-30T00:43:07.961Z,1021.46
2017-03-30T00:44:07.994Z,1021.5
2017-03-30T00:45:08.020Z,1021.49
2017-03-30T00:46:08.055Z,1021.52
2017-03-30T00:47:08.084Z,1021.46
2017-03-30T00:48:08.118Z,1021.47
2017-03-30T00:49:08.149Z,1021.52
2017-03-30T00:50:08.177Z,1021.52
2017-03-30T00:51:08.207Z,1021.52
2017-03-30T00:52:08.241Z,1021.49
2017-03-30T00:53:08.258Z,1021.5
2017-03-30T00:54:08.304Z,1021.42
2017-03-30T00:55:08.336Z,1021.49
2017-03-30T00:56:08.365Z,1021.49
2017-03-30T00:57:08.398Z,1021.45
2017-03-30T00:58:08.430Z,1021.43
2017-03-30T00:59:08.464Z,1021.43
2017-03-30T01:00:08.493Z,1021.4
2017-03-30T01:01:08.507Z,1021.43
2017-03-30T01:02:08.559Z,1021.39
2017-03-30T01:03:08.588Z,1021.41
2017-03-30T01:04:08.618Z,1021.41
2017-03-30T01:05:08.647Z,1021.46
2017-03-30T01:06:08.682Z,1021.43
2017-03-30T01:07:08.712Z,1021.43
2017-03-30T01:08:08.742Z,1021.41
2017-03-30T01:09:08.772Z,1021.4
2017-03-30T01:10:08.808Z,1021.45
2017-03-30T01:11:08.834Z,1021.44
2017-03-30T01:12:08.869Z,1021.43
2017-03-30T01:13:08.900Z,1021.42
2017-03-30T01:14:08.930Z,1021.42
2017-03-30T01:15:08.963Z,1021.43
2017-03-30T01:16:08.978Z,1021.4
2017-03-30T01:17:09.024Z,1021.43
2017-03-30T01:18:09.058Z,1021.4
2017-03-30T01:19:09.087Z,1021.41
2017-03-30T01:20:09.119Z,1021.35
2017-03-30T01:21:09.152Z,1021.34
2017-03-30T01:22:09.181Z,1021.34
2017-03-30T01:23:09.211Z,1021.34
2017-03-30T01:24:09.246Z,1021.37
2017-03-30T01:25:09.279Z,1021.4
2017-03-30T01:26:09.305Z,1021.37
2017-03-30T01:27:09.337Z,1021.39
2017-03-30T01:28:09.372Z,1021.38
2017-03-30T01:29:09.406Z,1021.43
2017-03-30T01:30:09.418Z,1021.34
2017-03-30T01:31:09.462Z,1021.36
2017-03-30T01:32:09.497Z,1021.33
2017-03-30T01:33:09.529Z,1021.34
2017-03-30T01:34:09.558Z,1021.37
2017-03-30T01:35:09.587Z,1021.35
2017-03-30T01:36:09.619Z,1021.32
2017-03-30T01:37:09.656Z,1021.36
2017-03-30T01:38:09.682Z,1021.29
2017-03-30T01:39:09.715Z,1021.28
2017-03-30T01:40:09.746Z,1021.25
2017-03-30T01:41:09.779Z,1021.25
2017-03-30T01:42:09.803Z,1021.25
2017-03-30T01:43:09.841Z,1021.27
2017-03-30T01:44:09.873Z,1021.34
2017-03-30T01:45:09.906Z,1021.38
2017-03-30T01:46:09.934Z,1021.34
2017-03-30T01:47:09.964Z,1021.39
2017-03-30T01:48:09.994Z,1021.38
2017-03-30T01:49:10.029Z,1021.39
2017-03-30T01:50:10.063Z,1021.42
2017-03-30T01:51:10.091Z,1021.36
2017-03-30T01:52:10.124Z,1021.4
2017-03-30T01:53:10.152Z,1021.42
2017-03-30T01:54:10.188Z,1021.5
2017-03-30T01:55:10.215Z,1021.46
2017-03-30T01:56:10.245Z,1021.49
2017-03-30T01:57:10.280Z,1021.49
2017-03-30T01:58:10.311Z,1021.47
2017-03-30T01:59:10.342Z,1021.49
2017-03-30T02:00:10.500Z,1021.51
2017-03-30T02:01:10.390Z,1021.5
2017-03-30T02:02:10.436Z,1021.55
2017-03-30T02:03:10.466Z,1021.55
2017-03-30T02:04:10.494Z,1021.52
2017-03-30T02:05:10.528Z,1021.54
2017-03-30T02:06:10.563Z,1021.55
2017-03-30T02:07:10.592Z,1021.52
2017-03-30T02:08:10.626Z,1021.5
2017-03-30T02:09:10.654Z,1021.54
2017-03-30T02:10:10.686Z,1021.5
2017-03-30T02:11:10.716Z,1021.49
2017-03-30T02:12:10.747Z,1021.51
2017-03-30T02:13:10.783Z,1021.5
2017-03-30T02:14:10.812Z,1021.49
2017-03-30T02:15:11.196Z,1021.55
2017-03-30T02:16:10.873Z,1021.49
2017-03-30T02:17:10.906Z,1021.53
2017-03-30T02:18:10.937Z,1021.54
2017-03-30T02:19:10.973Z,1021.59
2017-03-30T02:20:10.992Z,1021.59
2017-03-30T02:21:11.030Z,1021.63
2017-03-30T02:22:11.100Z,1021.54
2017-03-30T02:23:11.097Z,1021.53
2017-03-30T02:24:11.124Z,1021.59
2017-03-30T02:25:11.154Z,1021.55
2017-03-30T02:26:11.190Z,1021.59
2017-03-30T02:27:11.219Z,1021.55
2017-03-30T02:28:11.249Z,1021.55
2017-03-30T02:29:11.280Z,1021.54
2017-03-30T02:30:11.303Z,1021.58
2017-03-30T02:31:11.347Z,1021.56
2017-03-30T02:32:11.377Z,1021.59
2017-03-30T02:33:11.408Z,1021.57
2017-03-30T02:34:11.440Z,1021.6
2017-03-30T02:35:11.468Z,1021.56
2017-03-30T02:36:11.503Z,1021.61
2017-03-30T02:37:11.530Z,1021.62
2017-03-30T02:38:11.563Z,1021.63
2017-03-30T02:39:11.598Z,1021.61
2017-03-30T02:40:11.625Z,1021.63
2017-03-30T02:41:11.658Z,1021.67
2017-03-30T02:42:11.690Z,1021.62
2017-03-30T02:43:11.723Z,1021.61
2017-03-30T02:44:11.752Z,1021.62
2017-03-30T02:45:11.776Z,1021.68
2017-03-30T02:46:11.803Z,1021.71
2017-03-30T02:47:11.830Z,1021.69
2017-03-30T02:48:11.877Z,1021.7
2017-03-30T02:49:11.905Z,1021.68
2017-03-30T02:50:11.944Z,1021.68
2017-03-30T02:51:11.976Z,1021.63
2017-03-30T02:52:12.005Z,1021.66
2017-03-30T02:53:12.036Z,1021.63
2017-03-30T02:54:12.064Z,1021.69
2017-03-30T02:55:12.100Z,1021.66
2017-03-30T02:56:12.129Z,1021.65
2017-03-30T02:57:12.161Z,1021.69
2017-03-30T02:58:12.193Z,1021.75
2017-03-30T02:59:12.225Z,1021.69
2017-03-30T03:00:12.259Z,1021.68
2017-03-30T03:01:12.286Z,1021.67
2017-03-30T03:02:12.317Z,1021.64
2017-03-30T03:03:12.349Z,1021.65
2017-03-30T03:04:12.375Z,1021.64
2017-03-30T03:05:12.415Z,1021.59
2017-03-30T03:06:12.446Z,1021.64
2017-03-30T03:07:12.477Z,1021.66
2017-03-30T03:08:12.510Z,1021.6
2017-03-30T03:09:12.537Z,1021.6
2017-03-30T03:10:12.566Z,1021.66
2017-03-30T03:11:12.614Z,1021.67
2017-03-30T03:12:12.635Z,1021.67
2017-03-30T03:13:12.664Z,1021.68
2017-03-30T03:14:12.697Z,1021.66
2017-03-30T03:15:12.713Z,1021.73
2017-03-30T03:16:12.761Z,1021.65
2017-03-30T03:17:12.785Z,1021.68
2017-03-30T03:18:12.820Z,1021.66
2017-03-30T03:19:12.853Z,1021.73
2017-03-30T03:20:12.887Z,1021.64
2017-03-30T03:21:12.917Z,1021.65
2017-03-30T03:22:12.948Z,1021.73
2017-03-30T03:23:12.978Z,1021.7
2017-03-30T03:24:13.017Z,1021.61
2017-03-30T03:25:13.044Z,1021.68
2017-03-30T03:26:13.103Z,1021.7
2017-03-30T03:27:13.108Z,1021.71
2017-03-30T03:28:13.137Z,1021.69
2017-03-30T03:29:13.167Z,1021.67
2017-03-30T03:30:13.209Z,1021.72
2017-03-30T03:31:13.233Z,1021.69
2017-03-30T03:32:13.266Z,1021.69
2017-03-30T03:33:13.295Z,1021.7
2017-03-30T03:34:13.327Z,1021.68
2017-03-30T03:35:13.358Z,1021.72
2017-03-30T03:36:13.392Z,1021.71
2017-03-30T03:37:13.421Z,1021.71
2017-03-30T03:38:13.454Z,1021.71
2017-03-30T03:39:13.487Z,1021.7
2017-03-30T03:40:13.518Z,1021.7
2017-03-30T03:41:13.549Z,1021.69
2017-03-30T03:42:13.580Z,1021.69
2017-03-30T03:43:13.613Z,1021.72
2017-03-30T03:44:13.642Z,1021.68
2017-03-30T03:45:13.677Z,1021.74
2017-03-30T03:46:13.714Z,1021.7
2017-03-30T03:47:13.740Z,1021.69
2017-03-30T03:48:13.770Z,1021.71
2017-03-30T03:49:13.804Z,1021.76
2017-03-30T03:50:13.836Z,1021.73
2017-03-30T03:51:13.862Z,1021.8
2017-03-30T03:52:13.895Z,1021.83
2017-03-30T03:53:13.914Z,1021.79
2017-03-30T03:54:13.959Z,1021.8
2017-03-30T03:55:13.988Z,1021.78
2017-03-30T03:56:14.018Z,1021.79
2017-03-30T03:57:14.053Z,1021.76
2017-03-30T03:58:14.086Z,1021.76
2017-03-30T03:59:14.115Z,1021.8
2017-03-30T04:00:24.195Z,1021.76
2017-03-30T04:01:24.219Z,1021.74
2017-03-30T04:02:24.254Z,1021.76
2017-03-30T04:03:24.286Z,1021.78
2017-03-30T04:04:24.318Z,1021.81
2017-03-30T04:05:24.346Z,1021.84
2017-03-30T04:06:24.383Z,1021.9
2017-03-30T04:07:24.414Z,1021.88
2017-03-30T04:08:24.443Z,1021.81
2017-03-30T04:09:24.472Z,1021.86
2017-03-30T04:10:24.507Z,1021.9
2017-03-30T04:11:24.537Z,1021.9
2017-03-30T04:12:24.566Z,1021.88
2017-03-30T04:13:24.602Z,1021.86
2017-03-30T04:14:24.632Z,1021.84
2017-03-30T04:15:24.666Z,1021.9
2017-03-30T04:16:24.697Z,1021.87
2017-03-30T04:17:24.712Z,1021.89
2017-03-30T04:18:24.745Z,1021.87
2017-03-30T04:19:24.791Z,1021.82
2017-03-30T04:20:24.821Z,1021.86
2017-03-30T04:21:24.851Z,1021.84
2017-03-30T04:22:24.873Z,1021.89
2017-03-30T04:23:24.917Z,1021.94
2017-03-30T04:24:24.947Z,1021.94
2017-03-30T04:25:24.978Z,1021.87
2017-03-30T04:26:25.012Z,1021.89
2017-03-30T04:27:25.040Z,1021.97
2017-03-30T04:28:25.072Z,1021.95
2017-03-30T04:29:25.105Z,1021.93
2017-03-30T04:30:25.137Z,1021.9
2017-03-30T04:31:25.165Z,1021.97
2017-03-30T04:32:25.203Z,1021.94
2017-03-30T04:33:25.233Z,1021.93
2017-03-30T04:34:25.264Z,1021.91
2017-03-30T04:35:25.296Z,1021.93
2017-03-30T04:36:25.314Z,1021.96
2017-03-30T04:37:25.356Z,1021.93
2017-03-30T04:38:25.387Z,1021.94
2017-03-30T04:39:25.417Z,1021.9
2017-03-30T04:40:25.449Z,1021.92
2017-03-30T04:41:25.485Z,1021.91
2017-03-30T04:42:25.517Z,1021.93
2017-03-30T04:43:25.549Z,1021.89
2017-03-30T04:44:25.577Z,1021.88
2017-03-30T04:45:25.713Z,1021.9
2017-03-30T04:46:25.641Z,1021.95
2017-03-30T04:47:25.675Z,1021.97
2017-03-30T04:48:25.705Z,1021.98
2017-03-30T04:49:25.735Z,1021.96
2017-03-30T04:50:25.766Z,1021.98
2017-03-30T04:51:25.795Z,1021.95
2017-03-30T04:52:25.814Z,1021.96
2017-03-30T04:53:25.861Z,1021.98
2017-03-30T04:54:25.894Z,1021.97
2017-03-30T04:55:25.918Z,1022.04
2017-03-30T04:56:25.954Z,1021.97
2017-03-30T04:57:25.986Z,1022.02
2017-03-30T04:58:26.018Z,1022
2017-03-30T04:59:26.035Z,1021.98
2017-03-30T05:00:26.083Z,1021.97
2017-03-30T05:01:26.116Z,1022.02
2017-03-30T05:02:26.146Z,1021.96
2017-03-30T05:03:26.170Z,1022.01
2017-03-30T05:04:26.204Z,1022.04
2017-03-30T05:05:26.222Z,1022.01
2017-03-30T05:06:26.265Z,1021.94
2017-03-30T05:07:26.299Z,1021.95
2017-03-30T05:08:26.332Z,1021.98
2017-03-30T05:09:26.366Z,1021.93
2017-03-30T05:10:26.395Z,1021.93
2017-03-30T05:11:26.426Z,1021.95
2017-03-30T05:12:26.459Z,1021.91
2017-03-30T05:13:26.488Z,1021.94
2017-03-30T05:14:26.518Z,1021.94
2017-03-30T05:15:26.549Z,1021.94
2017-03-30T05:16:26.584Z,1021.98
2017-03-30T05:17:26.614Z,1021.98
2017-03-30T05:18:26.646Z,1021.99
2017-03-30T05:19:26.681Z,1021.98
2017-03-30T05:20:26.709Z,1021.98
2017-03-30T05:21:26.737Z,1021.93
2017-03-30T05:22:26.769Z,1021.97
2017-03-30T05:23:26.801Z,1022
2017-03-30T05:24:26.832Z,1021.96
2017-03-30T05:25:26.865Z,1021.98
2017-03-30T05:26:26.900Z,1021.98
2017-03-30T05:27:26.927Z,1022.02
2017-03-30T05:28:26.958Z,1022.01
2017-03-30T05:29:26.992Z,1022
2017-03-30T05:30:27.022Z,1022.03
2017-03-30T05:31:27.054Z,1022
2017-03-30T05:32:27.085Z,1022.07
2017-03-30T05:33:27.119Z,1022.06
2017-03-30T05:34:27.150Z,1022.04
2017-03-30T05:35:27.187Z,1022
2017-03-30T05:36:27.207Z,1022.08
2017-03-30T05:37:27.244Z,1022.06
2017-03-30T05:38:27.272Z,1022.06
2017-03-30T05:39:27.304Z,1022.07
2017-03-30T05:40:27.336Z,1022.06
2017-03-30T05:41:27.371Z,1022.09
2017-03-30T05:42:27.392Z,1022.06
2017-03-30T05:43:27.432Z,1022.11
2017-03-30T05:44:27.464Z,1022.12
2017-03-30T05:45:27.496Z,1022.12
2017-03-30T05:46:27.526Z,1022.13
2017-03-30T05:47:27.559Z,1022.11
2017-03-30T05:48:27.593Z,1022.1
2017-03-30T05:49:27.620Z,1022.12
2017-03-30T05:50:27.951Z,1022.14
2017-03-30T05:51:27.685Z,1022.1
2017-03-30T05:52:27.718Z,1022.17
2017-03-30T05:53:27.745Z,1022.11
2017-03-30T05:54:27.777Z,1022.12
2017-03-30T05:55:27.811Z,1022.16
2017-03-30T05:56:27.843Z,1022.15
2017-03-30T05:57:27.871Z,1022.15
2017-03-30T05:58:27.904Z,1022.16
2017-03-30T05:59:27.922Z,1022.12
2017-03-30T06:00:27.970Z,1022.16
2017-03-30T06:01:28.001Z,1022.17
2017-03-30T06:02:28.030Z,1022.17
2017-03-30T06:03:28.062Z,1022.15
2017-03-30T06:04:28.097Z,1022.17
2017-03-30T06:05:28.132Z,1022.15
2017-03-30T06:06:28.156Z,1022.19
2017-03-30T06:07:28.189Z,1022.19
2017-03-30T06:08:28.225Z,1022.21
2017-03-30T06:09:28.254Z,1022.22
2017-03-30T06:10:28.287Z,1022.23
2017-03-30T06:11:28.305Z,1022.22
2017-03-30T06:12:28.349Z,1022.28
2017-03-30T06:13:28.381Z,1022.32
2017-03-30T06:14:28.415Z,1022.26
2017-03-30T06:15:28.443Z,1022.34
2017-03-30T06:16:28.479Z,1022.32
2017-03-30T06:17:28.511Z,1022.29
2017-03-30T06:18:28.543Z,1022.3
2017-03-30T06:19:28.573Z,1022.31
2017-03-30T06:20:28.597Z,1022.36
2017-03-30T06:21:28.626Z,1022.33
2017-03-30T06:22:28.668Z,1022.28
2017-03-30T06:23:28.701Z,1022.27
2017-03-30T06:24:28.730Z,1022.32
2017-03-30T06:25:28.764Z,1022.28
2017-03-30T06:26:28.796Z,1022.3
2017-03-30T06:27:28.826Z,1022.27
2017-03-30T06:28:28.860Z,1022.32
2017-03-30T06:29:28.895Z,1022.25
2017-03-30T06:30:28.925Z,1022.28
2017-03-30T06:31:28.952Z,1022.26
2017-03-30T06:32:28.989Z,1022.28
2017-03-30T06:33:29.024Z,1022.26
2017-03-30T06:34:29.055Z,1022.27
2017-03-30T06:35:29.083Z,1022.28
2017-03-30T06:36:29.120Z,1022.23
2017-03-30T06:37:29.150Z,1022.31
2017-03-30T06:38:29.180Z,1022.31
2017-03-30T06:39:29.214Z,1022.33
2017-03-30T06:40:29.246Z,1022.29
2017-03-30T06:41:29.281Z,1022.29
2017-03-30T06:42:29.310Z,1022.26
2017-03-30T06:43:29.338Z,1022.32
2017-03-30T06:44:29.375Z,1022.3
2017-03-30T06:45:29.415Z,1022.33
2017-03-30T06:46:29.442Z,1022.32
2017-03-30T06:47:29.474Z,1022.36
2017-03-30T06:48:29.504Z,1022.34
2017-03-30T06:49:29.536Z,1022.32
2017-03-30T06:50:29.572Z,1022.33
2017-03-30T06:51:29.599Z,1022.31
2017-03-30T06:52:29.632Z,1022.4
2017-03-30T06:53:29.663Z,1022.37
2017-03-30T06:54:29.697Z,1022.42
2017-03-30T06:55:29.730Z,1022.41
2017-03-30T06:56:29.763Z,1022.39
2017-03-30T06:57:29.798Z,1022.39
2017-03-30T06:58:29.828Z,1022.43
2017-03-30T06:59:29.861Z,1022.39
2017-03-30T07:00:29.896Z,1022.41
2017-03-30T07:01:29.927Z,1022.44
2017-03-30T07:02:29.959Z,1022.38
2017-03-30T07:03:29.991Z,1022.46
2017-03-30T07:04:30.027Z,1022.43
2017-03-30T07:05:30.058Z,1022.41
2017-03-30T07:06:30.088Z,1022.43
2017-03-30T07:07:30.122Z,1022.44
2017-03-30T07:08:30.156Z,1022.41
2017-03-30T07:09:30.189Z,1022.42
2017-03-30T07:10:30.223Z,1022.4
2017-03-30T07:11:30.252Z,1022.4
2017-03-30T07:12:30.283Z,1022.38
2017-03-30T07:13:30.323Z,1022.39
2017-03-30T07:14:30.351Z,1022.43
2017-03-30T07:15:30.471Z,1022.49
2017-03-30T07:16:30.418Z,1022.42
2017-03-30T07:17:30.452Z,1022.47
2017-03-30T07:18:30.484Z,1022.48
2017-03-30T07:19:30.514Z,1022.51
2017-03-30T07:20:30.534Z,1022.5
2017-03-30T07:21:30.582Z,1022.51
2017-03-30T07:22:30.613Z,1022.52
2017-03-30T07:23:30.648Z,1022.52
2017-03-30T07:24:30.677Z,1022.5
2017-03-30T07:25:30.712Z,1022.49
2017-03-30T07:26:30.732Z,1022.53
2017-03-30T07:27:30.777Z,1022.53
2017-03-30T07:28:30.810Z,1022.54
2017-03-30T07:29:30.832Z,1022.53
2017-03-30T07:30:30.877Z,1022.58
2017-03-30T07:31:30.915Z,1022.57
2017-03-30T07:32:30.932Z,1022.57
2017-03-30T07:33:30.973Z,1022.57
2017-03-30T07:34:31.007Z,1022.52
2017-03-30T07:35:31.040Z,1022.53
2017-03-30T07:36:31.072Z,1022.59
2017-03-30T07:37:31.106Z,1022.58
2017-03-30T07:38:31.137Z,1022.56
2017-03-30T07:39:31.173Z,1022.58
2017-03-30T07:40:31.207Z,1022.6
2017-03-30T07:41:31.234Z,1022.6
2017-03-30T07:42:31.270Z,1022.58
2017-03-30T07:43:31.306Z,1022.64
2017-03-30T07:44:31.335Z,1022.63
2017-03-30T07:45:31.371Z,1022.63
2017-03-30T07:46:31.405Z,1022.66
2017-03-30T07:47:31.436Z,1022.65
2017-03-30T07:48:31.470Z,1022.64
2017-03-30T07:49:31.503Z,1022.69
2017-03-30T07:50:31.534Z,1022.66
2017-03-30T07:51:31.572Z,1022.67
2017-03-30T07:52:31.603Z,1022.67
2017-03-30T07:53:31.636Z,1022.71
2017-03-30T07:54:31.668Z,1022.74
2017-03-30T07:55:31.698Z,1022.69
2017-03-30T07:56:31.736Z,1022.72
2017-03-30T07:57:31.766Z,1022.7
2017-03-30T07:58:31.799Z,1022.7
2017-03-30T07:59:31.832Z,1022.72
2017-03-30T08:00:31.850Z,1022.74
2017-03-30T08:01:31.897Z,1022.74
2017-03-30T08:02:31.930Z,1022.77
2017-03-30T08:03:31.963Z,1022.76
2017-03-30T08:04:31.995Z,1022.77
2017-03-30T08:05:32.031Z,1022.73
2017-03-30T08:06:32.059Z,1022.75
2017-03-30T08:07:32.095Z,1022.77
2017-03-30T08:08:32.130Z,1022.75
2017-03-30T08:09:32.162Z,1022.81
2017-03-30T08:10:32.193Z,1022.78
2017-03-30T08:11:32.227Z,1022.82
2017-03-30T08:12:32.258Z,1022.82
2017-03-30T08:13:32.292Z,1022.82
2017-03-30T08:14:32.329Z,1022.84
2017-03-30T08:15:32.359Z,1022.87
2017-03-30T08:16:32.393Z,1022.88
2017-03-30T08:17:32.426Z,1022.82
2017-03-30T08:18:32.461Z,1022.86
2017-03-30T08:19:32.490Z,1022.83
2017-03-30T08:20:32.526Z,1022.88
2017-03-30T08:21:32.555Z,1022.93
2017-03-30T08:22:32.582Z,1022.91
2017-03-30T08:23:32.622Z,1022.93
2017-03-30T08:24:32.653Z,1022.93
2017-03-30T08:25:32.673Z,1022.98
2017-03-30T08:26:32.719Z,1023.01
2017-03-30T08:27:32.753Z,1023
2017-03-30T08:28:32.784Z,1022.94
2017-03-30T08:29:32.819Z,1022.98
2017-03-30T08:30:32.850Z,1022.94
2017-03-30T08:31:32.883Z,1022.99
2017-03-30T08:32:32.920Z,1023
2017-03-30T08:33:32.949Z,1022.95
2017-03-30T08:34:32.980Z,1022.97
2017-03-30T08:35:33.015Z,1022.99
2017-03-30T08:36:33.048Z,1022.99
2017-03-30T08:37:33.079Z,1022.99
2017-03-30T08:38:33.115Z,1022.98
2017-03-30T08:39:33.146Z,1023.02
2017-03-30T08:40:33.183Z,1022.98
2017-03-30T08:41:33.211Z,1022.99
2017-03-30T08:42:33.244Z,1023.03
2017-03-30T08:43:33.281Z,1022.99
2017-03-30T08:44:33.310Z,1023.01
2017-03-30T08:45:33.344Z,1023.04
2017-03-30T08:46:33.379Z,1022.99
2017-03-30T08:47:33.405Z,1023.01
2017-03-30T08:48:33.443Z,1023.02
2017-03-30T08:49:33.475Z,1023.05
2017-03-30T08:50:33.506Z,1023.07
2017-03-30T08:51:33.537Z,1023.13
2017-03-30T08:52:33.574Z,1023.06
2017-03-30T08:53:33.605Z,1023.09
2017-03-30T08:54:33.640Z,1023.11
2017-03-30T08:55:33.671Z,1023.08
2017-03-30T08:56:33.704Z,1023.09
2017-03-30T08:57:33.735Z,1023.08
2017-03-30T08:58:33.772Z,1023.04
2017-03-30T08:59:33.800Z,1023.03
2017-03-30T09:00:33.834Z,1023.07
2017-03-30T09:01:33.907Z,1023.03
2017-03-30T09:02:33.902Z,1023.08
2017-03-30T09:03:33.923Z,1023.03
2017-03-30T09:04:33.972Z,1023.04
2017-03-30T09:05:33.995Z,1023.07
2017-03-30T09:06:34.035Z,1023.04
2017-03-30T09:07:34.070Z,1023.07
2017-03-30T09:08:34.098Z,1023.03
2017-03-30T09:09:34.122Z,1023.07
2017-03-30T09:10:34.167Z,1023.03
2017-03-30T09:11:34.203Z,1023.01
2017-03-30T09:12:34.236Z,1023.04
2017-03-30T09:13:34.270Z,1023.01
2017-03-30T09:14:34.301Z,1023.07
2017-03-30T09:15:34.325Z,1023.11
2017-03-30T09:16:34.369Z,1023.09
2017-03-30T09:17:34.402Z,1023.07
2017-03-30T09:18:34.440Z,1023.1
2017-03-30T09:19:34.476Z,1023.15
2017-03-30T09:20:34.503Z,1023.12
2017-03-30T09:21:34.541Z,1023.15
2017-03-30T09:22:34.574Z,1023.13
2017-03-30T09:23:34.611Z,1023.15
2017-03-30T09:24:34.645Z,1023.11
2017-03-30T09:25:34.677Z,1023.06
2017-03-30T09:26:34.712Z,1023.08
2017-03-30T09:27:34.747Z,1023.08
2017-03-30T09:28:34.781Z,1023.08
2017-03-30T09:29:34.815Z,1023.08
2017-03-30T09:30:34.853Z,1023.03
2017-03-30T09:31:34.874Z,1023.02
2017-03-30T09:32:34.922Z,1022.99
2017-03-30T09:33:34.957Z,1023.02
2017-03-30T09:34:34.991Z,1022.99
2017-03-30T09:35:35.022Z,1022.96
2017-03-30T09:36:35.059Z,1022.98
2017-03-30T09:37:35.093Z,1022.97
2017-03-30T09:38:35.127Z,1022.97
2017-03-30T09:39:35.162Z,1022.95
2017-03-30T09:40:35.198Z,1022.97
2017-03-30T09:41:35.232Z,1022.98
2017-03-30T09:42:35.256Z,1022.97
2017-03-30T09:43:35.305Z,1022.98
2017-03-30T09:44:35.336Z,1022.99
2017-03-30T09:45:35.374Z,1023.01
2017-03-30T09:46:35.405Z,1022.96
2017-03-30T09:47:35.444Z,1022.97
2017-03-30T09:48:35.476Z,1022.97
2017-03-30T09:49:35.510Z,1022.99
2017-03-30T09:50:35.546Z,1023.01
2017-03-30T09:51:35.580Z,1023.02
2017-03-30T09:52:35.617Z,1022.98
2017-03-30T09:53:35.651Z,1022.98
2017-03-30T09:54:35.687Z,1023.01
2017-03-30T09:55:35.720Z,1023
2017-03-30T09:56:35.757Z,1023.01
2017-03-30T09:57:35.792Z,1023
2017-03-30T09:58:35.828Z,1023
2017-03-30T09:59:35.861Z,1022.94
2017-03-30T10:00:35.898Z,1023
2017-03-30T10:01:35.933Z,1023.01
2017-03-30T10:02:35.972Z,1022.98
2017-03-30T10:03:36.001Z,1022.9
2017-03-30T10:04:36.044Z,1022.94
2017-03-30T10:05:36.087Z,1022.91
2017-03-30T10:07:05.253Z,1022.92
2017-03-30T10:07:38.907Z,1022.88
2017-03-30T10:08:38.940Z,1022.89
2017-03-30T10:09:38.970Z,1022.85
2017-03-30T10:10:39.018Z,1022.84
2017-03-30T10:11:39.051Z,1022.87
2017-03-30T10:12:39.087Z,1022.87
2017-03-30T10:13:39.123Z,1022.9
2017-03-30T10:14:39.160Z,1022.87
2017-03-30T10:15:39.199Z,1022.91
2017-03-30T10:16:39.234Z,1022.89
2017-03-30T10:17:39.270Z,1022.85
2017-03-30T10:18:39.287Z,1022.88
2017-03-30T10:19:39.340Z,1022.81
2017-03-30T10:20:39.367Z,1022.87
2017-03-30T10:21:39.411Z,1022.88
2017-03-30T10:22:39.435Z,1023.07
2017-03-30T10:23:39.484Z,1022.94
2017-03-30T10:24:39.502Z,1022.9
2017-03-30T10:25:39.560Z,1022.84
2017-03-30T10:26:39.591Z,1022.78
2017-03-30T10:27:39.640Z,1022.77
2017-03-30T10:28:39.669Z,1022.76
2017-03-30T10:29:39.711Z,1022.79
2017-03-30T10:30:39.744Z,1022.8
2017-03-30T10:31:39.778Z,1022.8
2017-03-30T10:32:39.819Z,1022.76
2017-03-30T10:33:39.856Z,1022.86
2017-03-30T10:34:39.891Z,1022.82
2017-03-30T10:35:39.921Z,1022.77
2017-03-30T10:36:39.965Z,1022.78
2017-03-30T10:37:40.006Z,1022.77
2017-03-30T10:38:40.035Z,1022.87
2017-03-30T10:39:40.076Z,1022.72
2017-03-30T10:40:40.115Z,1022.62
2017-03-30T10:41:40.158Z,1022.6
2017-03-30T10:42:40.193Z,1022.62
2017-03-30T10:43:40.221Z,1022.6
2017-03-30T10:44:40.262Z,1022.61
2017-03-30T10:45:40.283Z,1022.61
2017-03-30T10:46:40.331Z,1022.61
2017-03-30T10:47:40.370Z,1022.69
2017-03-30T10:48:40.408Z,1022.62
2017-03-30T10:49:40.442Z,1022.65
2017-03-30T10:50:40.478Z,1022.65
2017-03-30T10:51:40.514Z,1022.61
2017-03-30T10:52:40.550Z,1022.56
2017-03-30T10:53:40.587Z,1022.56
2017-03-30T10:54:40.622Z,1022.61
2017-03-30T10:55:40.658Z,1022.61
2017-03-30T10:56:40.700Z,1022.58
2017-03-30T10:57:40.731Z,1022.64
2017-03-30T10:58:40.765Z,1022.62
2017-03-30T10:59:40.804Z,1022.65
2017-03-30T11:00:40.836Z,1022.61
2017-03-30T11:01:40.873Z,1022.55
2017-03-30T11:02:40.906Z,1022.6
2017-03-30T11:03:40.925Z,1022.63
2017-03-30T11:04:40.982Z,1022.61
2017-03-30T11:05:41.018Z,1022.57
2017-03-30T11:06:41.055Z,1022.7
2017-03-30T11:07:41.085Z,1022.71
2017-03-30T11:08:41.124Z,1022.75
2017-03-30T11:09:41.160Z,1022.8
2017-03-30T11:10:41.193Z,1022.64
2017-03-30T11:11:41.231Z,1022.64
2017-03-30T11:12:41.266Z,1022.68
2017-03-30T11:13:41.305Z,1022.73
2017-03-30T11:14:41.328Z,1022.75
2017-03-30T11:15:41.372Z,1022.69
2017-03-30T11:16:41.414Z,1022.66
2017-03-30T11:17:41.439Z,1022.67
2017-03-30T11:18:41.460Z,1022.57
2017-03-30T11:19:41.526Z,1022.51
2017-03-30T11:20:41.559Z,1022.48
2017-03-30T11:21:41.597Z,1022.46
2017-03-30T11:22:41.630Z,1022.51
2017-03-30T11:23:41.664Z,1022.47
2017-03-30T11:24:41.703Z,1022.47
2017-03-30T11:25:41.743Z,1022.38
2017-03-30T11:26:41.775Z,1022.44
2017-03-30T11:27:41.814Z,1022.42
2017-03-30T11:28:41.852Z,1022.43
2017-03-30T11:29:41.888Z,1022.42
2017-03-30T11:30:41.926Z,1022.41
2017-03-30T11:31:41.956Z,1022.46
2017-03-30T11:32:41.996Z,1022.51
2017-03-30T11:33:42.030Z,1022.49
2017-03-30T11:34:42.067Z,1022.49
2017-03-30T11:35:42.100Z,1022.47
2017-03-30T11:36:42.123Z,1022.48
2017-03-30T11:37:42.157Z,1022.51
2017-03-30T11:38:42.214Z,1022.56
2017-03-30T11:39:42.249Z,1022.53
2017-03-30T11:40:42.283Z,1022.57
2017-03-30T11:41:42.320Z,1022.54
2017-03-30T11:42:42.354Z,1022.53
2017-03-30T11:43:42.393Z,1022.54
2017-03-30T11:44:42.421Z,1022.5
2017-03-30T11:45:42.457Z,1022.53
2017-03-30T11:46:42.493Z,1022.53
2017-03-30T11:47:42.532Z,1022.55
2017-03-30T11:48:42.545Z,1022.56
2017-03-30T11:49:42.597Z,1022.58
2017-03-30T11:50:42.642Z,1022.54
2017-03-30T11:51:42.680Z,1022.5
2017-03-30T11:52:42.702Z,1022.49
2017-03-30T11:53:42.742Z,1022.56
2017-03-30T11:54:42.782Z,1022.53
2017-03-30T11:55:42.811Z,1022.52
2017-03-30T11:56:42.843Z,1022.56
2017-03-30T11:57:42.867Z,1022.61
2017-03-30T11:58:42.914Z,1022.59
2017-03-30T11:59:42.940Z,1022.58
2017-03-30T12:00:42.987Z,1022.59
2017-03-30T12:01:43.021Z,1022.62
2017-03-30T12:02:43.065Z,1022.62
2017-03-30T12:03:43.087Z,1022.56
2017-03-30T12:04:43.124Z,1022.57
2017-03-30T12:05:43.161Z,1022.53
2017-03-30T12:06:43.191Z,1022.5
2017-03-30T12:07:43.231Z,1022.48
2017-03-30T12:08:43.272Z,1022.44